WWY weather

West Wyalong Airport
West Wyalong, New South Wales, Australia

Public forecast

Using degrees Celsius for public forecast. Weather courtesy of forecast.io.

METAR (pilot weather report)

Closest report is Narrandera Airport, 56.9 nm (105.5 km) SW. Retrieved 2019/04/24 10:00 UTC (10 minutes ago):

YNAR 241000Z AUTO 20003KT 9999 // NCD 20/17 Q1022

TAF (pilot weather forecast)

Forecast is more than 12 hours old.

Closest forecast is Wagga Wagga City Airport, 75.0 nm (138.9 km) S. Retrieved 2018/05/25 18:03 UTC (11 months ago):

TAF YSWG 251649Z 2518/2608 07008KT CAVOK